createdAt,value
2022-10-10T00:00:48.433Z,17.89
2022-10-10T00:02:50.281Z,17.83
2022-10-10T00:04:52.192Z,17.81
2022-10-10T00:06:53.691Z,17.79
2022-10-10T00:08:55.180Z,17.78
2022-10-10T00:10:56.853Z,17.76
2022-10-10T00:13:03.013Z,17.69
2022-10-10T00:15:05.532Z,17.61
2022-10-10T00:17:07.023Z,17.68
2022-10-10T00:19:08.650Z,17.62
2022-10-10T00:21:10.428Z,17.62
2022-10-10T00:23:11.978Z,17.68
2022-10-10T00:25:13.802Z,17.72
2022-10-10T00:27:15.370Z,17.65
2022-10-10T00:29:18.431Z,17.72
2022-10-10T00:31:19.957Z,17.66
2022-10-10T00:33:21.719Z,17.58
2022-10-10T00:35:23.330Z,17.56
2022-10-10T00:37:25.166Z,17.42
2022-10-10T00:39:26.727Z,17.43
2022-10-10T00:41:28.370Z,17.37
2022-10-10T00:43:33.948Z,17.34
2022-10-10T00:45:40.980Z,17.31
2022-10-10T00:47:42.602Z,17.27
2022-10-10T00:49:44.609Z,17.26
2022-10-10T00:51:48.315Z,17.23
2022-10-10T00:53:52.826Z,17.20
2022-10-10T00:55:55.465Z,17.21
2022-10-10T00:58:00.035Z,17.29
2022-10-10T01:00:03.943Z,17.34
2022-10-10T01:02:07.117Z,17.34
2022-10-10T01:04:33.871Z,17.37
2022-10-10T01:06:35.378Z,17.35
2022-10-10T01:08:40.074Z,17.43
2022-10-10T01:10:52.800Z,17.32
2022-10-10T01:13:07.410Z,17.35
2022-10-10T01:15:17.848Z,17.43
2022-10-10T01:17:30.030Z,17.43
2022-10-10T01:20:06.888Z,17.43
2022-10-10T01:22:21.219Z,17.35
2022-10-10T01:24:50.342Z,17.34
2022-10-10T01:27:13.296Z,17.29
2022-10-10T01:29:24.514Z,17.26
2022-10-10T01:31:26.553Z,17.18
2022-10-10T01:33:36.620Z,17.15
2022-10-10T01:35:48.622Z,17.13
2022-10-10T01:37:57.963Z,17.06
2022-10-10T01:40:04.353Z,17.05
2022-10-10T01:42:10.113Z,17.04
2022-10-10T01:44:11.844Z,17.01
2022-10-10T01:46:17.503Z,17.02
2022-10-10T01:48:22.348Z,17.00
2022-10-10T01:50:26.126Z,16.98
2022-10-10T01:52:43.163Z,17.03
2022-10-10T01:54:55.351Z,17.01
2022-10-10T01:57:06.670Z,16.94
2022-10-10T01:59:19.066Z,16.89
2022-10-10T02:01:28.135Z,16.82
2022-10-10T02:03:32.691Z,16.79
2022-10-10T02:05:42.108Z,16.76
2022-10-10T02:07:47.427Z,16.74
2022-10-10T02:09:52.172Z,16.60
2022-10-10T02:11:55.117Z,16.60
2022-10-10T02:14:02.522Z,16.53
2022-10-10T02:16:08.649Z,16.43
2022-10-10T02:18:14.557Z,16.43
2022-10-10T02:20:20.388Z,16.40
2022-10-10T02:22:24.401Z,16.39
2022-10-10T02:24:25.897Z,16.42
2022-10-10T02:26:28.826Z,16.38
2022-10-10T02:28:36.555Z,16.34
2022-10-10T02:30:42.254Z,16.34
2022-10-10T02:32:47.185Z,16.38
2022-10-10T02:34:54.798Z,16.35
2022-10-10T02:37:02.760Z,16.38
2022-10-10T02:39:06.756Z,16.37
2022-10-10T02:41:11.518Z,16.32
2022-10-10T02:43:15.208Z,16.28
2022-10-10T02:45:18.939Z,16.30
2022-10-10T02:47:20.475Z,16.28
2022-10-10T02:49:33.345Z,16.19
2022-10-10T02:51:36.425Z,16.26
2022-10-10T02:53:38.450Z,16.27
2022-10-10T02:55:42.784Z,16.22
2022-10-10T02:57:44.344Z,16.18
2022-10-10T02:59:45.951Z,16.19
2022-10-10T03:01:47.660Z,16.16
2022-10-10T03:03:49.480Z,16.13
2022-10-10T03:05:51.099Z,16.12
2022-10-10T03:07:54.000Z,16.11
2022-10-10T03:09:55.531Z,16.18
2022-10-10T03:11:57.133Z,16.14
2022-10-10T03:13:58.635Z,16.12
2022-10-10T03:16:00.129Z,16.13
2022-10-10T03:18:01.705Z,16.16
2022-10-10T03:20:03.773Z,16.13
2022-10-10T03:22:05.442Z,16.13
2022-10-10T03:24:10.511Z,16.17
2022-10-10T03:26:14.152Z,16.17
2022-10-10T03:28:15.873Z,16.10
2022-10-10T03:30:17.486Z,16.07
2022-10-10T03:32:19.373Z,16.01
2022-10-10T03:34:20.856Z,16.03
2022-10-10T03:36:22.791Z,16.06
2022-10-10T03:38:24.498Z,16.03
2022-10-10T03:40:28.452Z,16.01
2022-10-10T03:42:30.280Z,16.00
2022-10-10T03:44:31.785Z,15.99
2022-10-10T03:46:33.338Z,15.99
2022-10-10T03:48:34.803Z,15.95
2022-10-10T03:50:36.609Z,15.96
2022-10-10T03:52:38.230Z,15.95
2022-10-10T03:54:39.796Z,15.95
2022-10-10T03:56:43.263Z,15.93
2022-10-10T03:58:44.962Z,15.97
2022-10-10T04:00:53.194Z,15.94
2022-10-10T04:02:54.760Z,15.97
2022-10-10T04:04:56.382Z,15.97
2022-10-10T04:06:58.091Z,15.96
2022-10-10T04:08:59.761Z,15.93
2022-10-10T04:11:01.248Z,15.89
2022-10-10T04:13:06.666Z,15.89
2022-10-10T04:15:09.169Z,15.88
2022-10-10T04:17:10.827Z,15.88
2022-10-10T04:19:12.378Z,15.84
2022-10-10T04:21:13.980Z,15.85
2022-10-10T04:23:15.526Z,15.86
2022-10-10T04:25:17.387Z,15.79
2022-10-10T04:27:19.096Z,15.76
2022-10-10T04:29:21.926Z,15.74
2022-10-10T04:31:23.591Z,15.74
2022-10-10T04:33:25.322Z,15.69
2022-10-10T04:35:26.900Z,15.68
2022-10-10T04:37:28.437Z,15.70
2022-10-10T04:39:30.087Z,15.73
2022-10-10T04:41:31.705Z,15.73
2022-10-10T04:43:33.237Z,15.73
2022-10-10T04:45:37.751Z,15.71
2022-10-10T04:47:39.415Z,15.72
2022-10-10T04:49:41.014Z,15.70
2022-10-10T04:51:42.801Z,15.70
2022-10-10T04:53:49.451Z,15.66
2022-10-10T04:55:51.961Z,15.64
2022-10-10T04:57:53.792Z,15.68
2022-10-10T04:59:55.372Z,15.68
2022-10-10T05:02:01.881Z,15.65
2022-10-10T05:04:04.063Z,15.69
2022-10-10T05:06:05.992Z,15.70
2022-10-10T05:08:07.518Z,15.70
2022-10-10T05:10:09.636Z,15.65
2022-10-10T05:12:11.158Z,15.63
2022-10-10T05:14:12.711Z,15.64
2022-10-10T05:16:14.295Z,15.58
2022-10-10T05:18:17.195Z,15.59
2022-10-10T05:20:21.139Z,15.52
2022-10-10T05:22:22.781Z,15.53
2022-10-10T05:24:24.440Z,15.58
2022-10-10T05:26:25.991Z,15.52
2022-10-10T05:28:27.702Z,15.51
2022-10-10T05:30:29.282Z,15.34
2022-10-10T05:32:30.827Z,15.42
2022-10-10T05:34:33.755Z,15.48
2022-10-10T05:36:35.298Z,15.50
2022-10-10T05:38:37.775Z,15.50
2022-10-10T05:40:39.658Z,15.46
2022-10-10T05:42:41.353Z,15.56
2022-10-10T05:44:42.892Z,15.48
2022-10-10T05:46:44.385Z,15.50
2022-10-10T05:48:46.021Z,15.45
2022-10-10T05:50:51.376Z,15.41
2022-10-10T05:52:53.615Z,15.40
2022-10-10T05:54:55.490Z,15.39
2022-10-10T05:56:57.131Z,15.43
2022-10-10T05:58:58.969Z,15.42
2022-10-10T06:01:03.504Z,15.42
2022-10-10T06:03:05.157Z,15.45
2022-10-10T06:05:09.719Z,15.57
2022-10-10T06:07:12.653Z,15.46
2022-10-10T06:09:14.196Z,15.46
2022-10-10T06:11:16.241Z,15.51
2022-10-10T06:13:24.079Z,15.51
2022-10-10T06:15:25.999Z,15.52
2022-10-10T06:17:27.693Z,15.61
2022-10-10T06:19:29.381Z,15.69
2022-10-10T06:21:31.238Z,15.79
2022-10-10T06:23:34.827Z,15.80
2022-10-10T06:25:41.609Z,15.82
2022-10-10T06:27:43.643Z,15.81
2022-10-10T06:29:45.457Z,15.74
2022-10-10T06:31:47.000Z,15.76
2022-10-10T06:33:48.776Z,15.73
2022-10-10T06:35:50.322Z,15.77
2022-10-10T06:37:51.966Z,15.81
2022-10-10T06:39:54.884Z,15.79
2022-10-10T06:41:56.544Z,15.82
2022-10-10T06:43:58.190Z,15.83
2022-10-10T06:45:59.771Z,15.84
2022-10-10T06:48:01.450Z,15.89
2022-10-10T06:50:03.530Z,15.87
2022-10-10T06:52:05.274Z,15.92
2022-10-10T06:54:07.249Z,15.94
2022-10-10T06:56:11.418Z,15.97
2022-10-10T06:58:12.961Z,15.97
2022-10-10T07:00:15.207Z,15.99
2022-10-10T07:02:16.761Z,16.03
2022-10-10T07:04:18.461Z,16.03
2022-10-10T07:06:20.700Z,16.03
2022-10-10T07:08:26.166Z,16.07
2022-10-10T07:10:27.810Z,16.07
2022-10-10T07:12:35.136Z,16.10
2022-10-10T07:14:41.262Z,16.09
2022-10-10T07:16:42.861Z,16.10
2022-10-10T07:18:44.728Z,16.12
2022-10-10T07:20:47.034Z,16.09
2022-10-10T07:22:48.773Z,16.04
2022-10-10T07:24:50.582Z,16.03
2022-10-10T07:27:02.415Z,16.09
2022-10-10T07:29:08.126Z,16.11
2022-10-10T07:31:11.016Z,16.13
2022-10-10T07:33:13.631Z,16.17
2022-10-10T07:35:15.266Z,16.17
2022-10-10T07:37:16.935Z,16.19
2022-10-10T07:39:19.877Z,16.22
2022-10-10T07:41:23.235Z,16.27
2022-10-10T07:43:24.796Z,16.30
2022-10-10T07:45:27.843Z,16.31
2022-10-10T07:47:29.501Z,16.35
2022-10-10T07:49:31.268Z,16.46
2022-10-10T07:51:32.845Z,16.60
2022-10-10T07:53:34.393Z,16.73
2022-10-10T07:55:38.964Z,16.87
2022-10-10T07:57:40.565Z,17.00
2022-10-10T07:59:42.148Z,17.14
2022-10-10T08:01:45.163Z,17.21
2022-10-10T08:03:47.528Z,17.32
2022-10-10T08:05:51.352Z,17.48
2022-10-10T08:07:53.549Z,17.60
2022-10-10T08:09:55.484Z,17.67
2022-10-10T08:11:57.293Z,17.74
2022-10-10T08:13:59.063Z,17.84
2022-10-10T08:16:01.685Z,17.97
2022-10-10T08:18:05.423Z,18.09
2022-10-10T08:20:07.342Z,18.26
2022-10-10T08:22:08.968Z,18.38
2022-10-10T08:24:10.621Z,18.45
2022-10-10T08:26:14.114Z,18.52
2022-10-10T08:28:16.049Z,18.57
2022-10-10T08:30:17.990Z,18.57
2022-10-10T08:32:19.678Z,18.60
2022-10-10T08:34:22.746Z,18.66
2022-10-10T08:36:24.821Z,18.72
2022-10-10T08:38:26.630Z,18.77
2022-10-10T08:40:28.301Z,18.90
2022-10-10T08:42:33.776Z,18.96
2022-10-10T08:44:42.448Z,18.95
2022-10-10T08:46:48.687Z,18.97
2022-10-10T08:48:53.612Z,18.99
2022-10-10T08:51:02.300Z,19.06
2022-10-10T08:53:09.401Z,19.22
2022-10-10T08:55:17.470Z,19.37
2022-10-10T08:57:26.061Z,19.43
2022-10-10T08:59:31.998Z,19.56
2022-10-10T09:01:36.399Z,19.67
2022-10-10T09:03:59.712Z,19.61
2022-10-10T09:06:17.346Z,19.64
2022-10-10T09:08:34.774Z,19.74
2022-10-10T09:10:49.788Z,19.76
2022-10-10T09:13:07.095Z,19.77
2022-10-10T09:15:14.984Z,19.85
2022-10-10T09:17:22.779Z,19.82
2022-10-10T09:19:38.788Z,19.94
2022-10-10T09:21:43.542Z,19.87
2022-10-10T09:23:51.548Z,20.04
2022-10-10T09:25:59.889Z,20.09
2022-10-10T09:28:08.009Z,20.22
2022-10-10T09:30:17.659Z,20.33
2022-10-10T09:32:23.992Z,20.50
2022-10-10T09:34:32.691Z,20.71
2022-10-10T09:36:37.147Z,20.85
2022-10-10T09:38:44.154Z,21.06
2022-10-10T09:40:49.640Z,21.15
2022-10-10T09:42:51.289Z,21.31
2022-10-10T09:44:53.126Z,21.41
2022-10-10T09:46:55.301Z,21.38
2022-10-10T09:48:58.046Z,21.50
2022-10-10T09:51:01.093Z,21.55
2022-10-10T09:53:03.151Z,21.68
2022-10-10T09:55:19.966Z,21.80
2022-10-10T09:57:25.765Z,21.97
2022-10-10T09:59:39.778Z,22.21
2022-10-10T10:01:41.421Z,22.23
2022-10-10T10:03:44.324Z,22.41
2022-10-10T10:05:55.146Z,22.53
2022-10-10T10:07:56.945Z,22.90
2022-10-10T10:10:01.434Z,23.27
2022-10-10T10:12:05.424Z,23.45
2022-10-10T10:14:20.237Z,23.46
2022-10-10T10:16:31.543Z,23.53
2022-10-10T10:18:40.225Z,23.57
2022-10-10T10:20:44.001Z,23.49
2022-10-10T10:22:47.293Z,23.57
2022-10-10T10:24:49.241Z,23.62
2022-10-10T10:26:51.075Z,23.61
2022-10-10T10:28:58.009Z,23.74
2022-10-10T10:31:00.135Z,23.75
2022-10-10T10:33:09.089Z,23.90
2022-10-10T10:35:20.652Z,24.27
2022-10-10T10:37:26.179Z,24.83
2022-10-10T10:39:44.830Z,25.21
2022-10-10T10:41:56.091Z,25.72
2022-10-10T10:44:14.427Z,26.35
2022-10-10T10:46:26.796Z,26.79
2022-10-10T10:48:39.749Z,27.28
2022-10-10T10:50:48.741Z,27.97
2022-10-10T10:52:59.045Z,28.52
2022-10-10T10:55:14.601Z,28.89
2022-10-10T10:57:59.987Z,29.21
2022-10-10T11:00:26.568Z,29.82
2022-10-10T11:02:56.001Z,30.27
2022-10-10T11:05:29.636Z,30.67
2022-10-10T11:07:44.936Z,30.88
2022-10-10T11:09:56.470Z,30.75
2022-10-10T11:12:05.460Z,30.72
2022-10-10T11:14:20.101Z,31.03
2022-10-10T11:16:48.352Z,30.88
2022-10-10T11:19:12.109Z,30.21
2022-10-10T11:21:17.154Z,30.10
2022-10-10T11:23:22.764Z,30.08
2022-10-10T11:25:29.868Z,30.21
2022-10-10T11:27:38.061Z,30.42
2022-10-10T11:29:51.468Z,30.87
2022-10-10T11:32:00.783Z,31.38
2022-10-10T11:34:09.448Z,31.80
2022-10-10T11:36:18.362Z,32.38
2022-10-10T11:38:25.301Z,32.77
2022-10-10T11:40:37.175Z,33.22
2022-10-10T11:42:48.715Z,33.64
2022-10-10T11:44:56.313Z,33.66
2022-10-10T11:47:06.953Z,33.88
2022-10-10T11:49:17.768Z,34.34
2022-10-10T11:51:30.021Z,34.58
2022-10-10T11:53:37.744Z,34.67
2022-10-10T11:55:45.366Z,34.97
2022-10-10T11:57:52.718Z,35.20
2022-10-10T11:59:59.067Z,35.20
2022-10-10T12:02:12.200Z,35.32
2022-10-10T12:04:13.983Z,35.44
2022-10-10T12:06:22.319Z,35.38
2022-10-10T12:08:31.356Z,35.26
2022-10-10T12:10:38.625Z,35.39
2022-10-10T12:12:44.579Z,35.08
2022-10-10T12:14:48.686Z,35.00
2022-10-10T12:16:51.156Z,34.94
2022-10-10T12:18:59.514Z,34.84
2022-10-10T12:21:07.519Z,34.54
2022-10-10T12:23:21.954Z,33.65
2022-10-10T12:25:35.279Z,32.77
2022-10-10T12:27:44.463Z,32.23
2022-10-10T12:30:03.835Z,31.57
2022-10-10T12:32:26.283Z,30.83
2022-10-10T12:34:46.586Z,30.43
2022-10-10T12:36:57.261Z,30.01
2022-10-10T12:39:37.052Z,29.44
2022-10-10T12:41:55.459Z,29.27
2022-10-10T12:44:19.972Z,29.07
2022-10-10T12:46:25.182Z,28.81
2022-10-10T12:48:27.475Z,28.67
2022-10-10T12:50:34.535Z,28.56
2022-10-10T12:52:46.454Z,28.15
2022-10-10T12:54:50.030Z,28.00
2022-10-10T12:57:00.488Z,27.90
2022-10-10T12:59:03.018Z,27.73
2022-10-10T13:01:08.944Z,27.72
2022-10-10T13:03:19.934Z,27.71
2022-10-10T13:05:28.002Z,27.61
2022-10-10T13:07:31.544Z,27.54
2022-10-10T13:09:35.874Z,27.45
2022-10-10T13:11:51.297Z,27.36
2022-10-10T13:13:55.021Z,27.17
2022-10-10T13:15:58.983Z,27.01
2022-10-10T13:18:00.856Z,26.86
2022-10-10T13:20:03.929Z,26.75
2022-10-10T13:22:05.530Z,26.75
2022-10-10T13:24:16.823Z,26.83
2022-10-10T13:26:22.475Z,26.82
2022-10-10T13:28:24.245Z,26.74
2022-10-10T13:30:26.710Z,26.69
2022-10-10T13:32:31.528Z,26.53
2022-10-10T13:34:36.656Z,26.54
2022-10-10T13:36:38.824Z,26.35
2022-10-10T13:38:40.323Z,26.52
2022-10-10T13:40:44.622Z,26.54
2022-10-10T13:42:47.526Z,26.59
2022-10-10T13:44:52.699Z,26.53
2022-10-10T13:46:54.331Z,26.36
2022-10-10T13:48:56.587Z,26.25
2022-10-10T13:51:07.471Z,26.38
2022-10-10T13:53:33.318Z,26.38
2022-10-10T13:55:37.971Z,26.30
2022-10-10T13:57:41.648Z,26.30
2022-10-10T13:59:45.344Z,26.25
2022-10-10T14:01:48.585Z,26.24
2022-10-10T14:03:51.679Z,26.23
2022-10-10T14:05:56.271Z,26.27
2022-10-10T14:07:58.786Z,26.23
2022-10-10T14:10:04.863Z,26.22
2022-10-10T14:12:15.281Z,26.21
2022-10-10T14:14:22.470Z,26.15
2022-10-10T14:16:26.097Z,26.00
2022-10-10T14:18:27.864Z,25.93
2022-10-10T14:20:29.587Z,25.98
2022-10-10T14:22:31.127Z,25.97
2022-10-10T14:24:32.732Z,26.03
2022-10-10T14:26:36.113Z,25.99
2022-10-10T14:28:39.278Z,25.96
2022-10-10T14:30:43.023Z,25.96
2022-10-10T14:32:45.088Z,25.95
2022-10-10T14:34:46.656Z,25.92
2022-10-10T14:36:50.029Z,25.83
2022-10-10T14:38:52.559Z,25.83
2022-10-10T14:40:55.097Z,25.80
2022-10-10T14:42:56.775Z,25.69
2022-10-10T14:44:58.427Z,25.69
2022-10-10T14:47:01.433Z,25.72
2022-10-10T14:49:03.717Z,25.68
2022-10-10T14:51:33.189Z,25.62
2022-10-10T14:53:31.436Z,25.66
2022-10-10T14:55:33.195Z,25.54
2022-10-10T14:57:34.955Z,25.51
2022-10-10T14:59:49.342Z,25.53
2022-10-10T15:01:53.383Z,25.50
2022-10-10T15:03:56.301Z,25.47
2022-10-10T15:05:58.282Z,25.45
2022-10-10T15:08:00.105Z,25.38
2022-10-10T15:10:32.785Z,25.33
2022-10-10T15:12:26.031Z,25.29
2022-10-10T15:14:27.689Z,25.28
2022-10-10T15:16:29.589Z,25.21
2022-10-10T15:18:53.341Z,25.23
2022-10-10T15:20:54.916Z,25.23
2022-10-10T15:22:57.337Z,25.20
2022-10-10T15:24:59.639Z,25.18
2022-10-10T15:27:01.585Z,25.19
2022-10-10T15:29:03.319Z,25.13
2022-10-10T15:31:06.080Z,25.11
2022-10-10T15:33:07.931Z,25.12
2022-10-10T15:35:13.557Z,25.03
2022-10-10T15:37:17.083Z,25.00
2022-10-10T15:39:18.984Z,25.02
2022-10-10T15:41:21.055Z,25.02
2022-10-10T15:43:22.687Z,25.00
2022-10-10T15:45:44.054Z,24.96
2022-10-10T15:47:46.745Z,24.88
2022-10-10T15:49:48.756Z,24.86
2022-10-10T15:51:50.369Z,24.83
2022-10-10T15:53:56.093Z,25.47
2022-10-10T15:55:57.862Z,25.62
2022-10-10T15:57:59.935Z,25.67
2022-10-10T16:00:02.098Z,24.96
2022-10-10T16:02:03.740Z,24.84
2022-10-10T16:04:06.000Z,24.80
2022-10-10T16:06:08.502Z,24.78
2022-10-10T16:08:10.957Z,24.76
2022-10-10T16:10:13.897Z,24.74
2022-10-10T16:12:15.691Z,24.73
2022-10-10T16:14:17.421Z,24.65
2022-10-10T16:16:21.579Z,24.67
2022-10-10T16:18:23.170Z,24.63
2022-10-10T16:20:38.104Z,24.61
2022-10-10T16:22:39.865Z,24.60
2022-10-10T16:24:42.800Z,24.58
2022-10-10T16:26:50.048Z,24.56
2022-10-10T16:28:52.573Z,24.52
2022-10-10T16:30:54.393Z,24.52
2022-10-10T16:32:56.149Z,24.50
2022-10-10T16:34:58.338Z,24.50
2022-10-10T16:37:00.205Z,24.48
2022-10-10T16:39:02.024Z,24.44
2022-10-10T16:41:04.817Z,24.42
2022-10-10T16:43:08.627Z,24.39
2022-10-10T16:45:11.515Z,24.37
2022-10-10T16:47:13.161Z,24.31
2022-10-10T16:49:14.889Z,24.29
2022-10-10T16:51:18.676Z,24.28
2022-10-10T16:53:20.513Z,24.28
2022-10-10T16:55:22.293Z,24.19
2022-10-10T16:57:24.046Z,24.17
2022-10-10T16:59:28.993Z,24.13
2022-10-10T17:01:31.416Z,24.11
2022-10-10T17:03:33.122Z,24.10
2022-10-10T17:05:34.917Z,24.08
2022-10-10T17:07:36.933Z,24.05
2022-10-10T17:09:38.850Z,24.03
2022-10-10T17:11:40.668Z,24.03
2022-10-10T17:13:42.860Z,24.02
2022-10-10T17:15:46.210Z,24.01
2022-10-10T17:17:48.071Z,23.95
2022-10-10T17:19:49.783Z,23.91
2022-10-10T17:21:51.590Z,23.87
2022-10-10T17:23:53.385Z,23.85
2022-10-10T17:25:55.010Z,23.84
2022-10-10T17:27:56.546Z,23.80
2022-10-10T17:29:58.265Z,23.81
2022-10-10T17:32:05.916Z,23.78
2022-10-10T17:34:08.187Z,23.73
2022-10-10T17:36:12.194Z,23.70
2022-10-10T17:38:35.031Z,23.67
2022-10-10T17:40:37.132Z,23.61
2022-10-10T17:42:38.875Z,23.55
2022-10-10T17:44:48.350Z,23.54
2022-10-10T17:46:53.025Z,23.53
2022-10-10T17:48:56.774Z,23.52
2022-10-10T17:50:59.149Z,23.54
2022-10-10T17:53:00.801Z,23.51
2022-10-10T17:55:02.571Z,23.50
2022-10-10T17:57:04.556Z,23.51
2022-10-10T17:59:07.432Z,23.52
2022-10-10T18:01:09.579Z,23.53
2022-10-10T18:03:12.328Z,23.48
2022-10-10T18:05:15.719Z,23.42
2022-10-10T18:07:17.464Z,23.36
2022-10-10T18:09:19.364Z,23.37
2022-10-10T18:11:25.011Z,23.34
2022-10-10T18:13:27.000Z,23.30
2022-10-10T18:15:28.883Z,23.29
2022-10-10T18:17:30.464Z,23.31
2022-10-10T18:19:32.640Z,23.27
2022-10-10T18:21:36.352Z,23.29
2022-10-10T18:23:38.570Z,23.14
2022-10-10T18:25:40.629Z,22.93
2022-10-10T18:27:42.680Z,22.84
2022-10-10T18:29:44.861Z,22.73
2022-10-10T18:31:47.375Z,22.65
2022-10-10T18:33:49.636Z,22.65
2022-10-10T18:35:51.318Z,22.64
2022-10-10T18:37:54.408Z,22.70
2022-10-10T18:39:56.003Z,22.61
2022-10-10T18:41:58.027Z,22.61
2022-10-10T18:44:00.864Z,22.50
2022-10-10T18:46:03.926Z,22.35
2022-10-10T18:48:06.182Z,22.16
2022-10-10T18:50:09.026Z,22.12
2022-10-10T18:52:10.584Z,21.98
2022-10-10T18:54:16.035Z,21.90
2022-10-10T18:56:19.623Z,21.77
2022-10-10T18:58:21.499Z,21.75
2022-10-10T19:00:23.347Z,21.73
2022-10-10T19:02:25.054Z,21.77
2022-10-10T19:04:26.850Z,21.77
2022-10-10T19:06:29.375Z,21.82
2022-10-10T19:08:31.120Z,21.80
2022-10-10T19:10:34.231Z,21.81
2022-10-10T19:12:38.750Z,21.73
2022-10-10T19:14:40.426Z,21.83
2022-10-10T19:16:43.281Z,21.97
2022-10-10T19:18:45.031Z,22.07
2022-10-10T19:20:48.894Z,22.16
2022-10-10T19:22:50.446Z,22.22
2022-10-10T19:24:52.075Z,22.27
2022-10-10T19:26:56.219Z,22.21
2022-10-10T19:28:57.983Z,22.02
2022-10-10T19:31:03.836Z,22.02
2022-10-10T19:33:06.134Z,22.09
2022-10-10T19:35:08.210Z,22.15
2022-10-10T19:37:09.992Z,22.10
2022-10-10T19:39:11.773Z,22.10
2022-10-10T19:41:15.372Z,22.11
2022-10-10T19:43:18.951Z,22.09
2022-10-10T19:45:20.932Z,22.10
2022-10-10T19:47:23.083Z,22.08
2022-10-10T19:49:24.801Z,22.06
2022-10-10T19:51:28.127Z,22.05
2022-10-10T19:53:29.939Z,21.99
2022-10-10T19:55:31.561Z,21.99
2022-10-10T19:57:33.123Z,21.96
2022-10-10T19:59:36.315Z,21.86
2022-10-10T20:01:38.081Z,21.68
2022-10-10T20:03:39.853Z,21.71
2022-10-10T20:05:41.498Z,21.75
2022-10-10T20:07:43.228Z,21.75
2022-10-10T20:09:45.347Z,21.80
2022-10-10T20:11:47.043Z,21.70
2022-10-10T20:13:49.988Z,21.57
2022-10-10T20:15:53.159Z,21.51
2022-10-10T20:17:54.722Z,21.50
2022-10-10T20:19:56.372Z,21.41
2022-10-10T20:21:58.008Z,21.33
2022-10-10T20:24:02.658Z,21.21
2022-10-10T20:26:13.049Z,21.18
2022-10-10T20:28:17.390Z,21.24
2022-10-10T20:30:21.846Z,21.30
2022-10-10T20:32:24.986Z,21.31
2022-10-10T20:34:26.876Z,21.33
2022-10-10T20:36:30.121Z,21.35
2022-10-10T20:38:31.780Z,21.36
2022-10-10T20:40:37.424Z,21.33
2022-10-10T20:42:38.992Z,21.30
2022-10-10T20:44:40.610Z,21.32
2022-10-10T20:46:44.109Z,21.30
2022-10-10T20:48:47.079Z,21.30
2022-10-10T20:50:48.783Z,21.27
2022-10-10T20:52:50.425Z,21.29
2022-10-10T20:54:54.787Z,21.31
2022-10-10T20:56:56.684Z,21.29
2022-10-10T20:58:58.791Z,21.30
2022-10-10T21:01:05.087Z,21.29
2022-10-10T21:03:06.631Z,21.30
2022-10-10T21:05:09.742Z,21.30
2022-10-10T21:07:11.388Z,21.28
2022-10-10T21:09:14.676Z,21.25
2022-10-10T21:11:18.522Z,21.23
2022-10-10T21:13:20.111Z,21.21
2022-10-10T21:15:21.669Z,21.17
2022-10-10T21:17:23.304Z,21.16
2022-10-10T21:19:24.891Z,21.16
2022-10-10T21:21:31.460Z,21.17
2022-10-10T21:23:36.137Z,21.19
2022-10-10T21:25:38.012Z,21.22
2022-10-10T21:27:39.534Z,21.21
2022-10-10T21:29:41.068Z,21.19
2022-10-10T21:31:45.263Z,21.21
2022-10-10T21:33:47.456Z,21.20
2022-10-10T21:35:51.580Z,21.20
2022-10-10T21:37:54.458Z,21.18
2022-10-10T21:39:56.053Z,21.18
2022-10-10T21:41:58.192Z,21.13
2022-10-10T21:44:00.322Z,21.11
2022-10-10T21:46:03.196Z,21.09
2022-10-10T21:48:06.875Z,21.07
2022-10-10T21:50:09.429Z,21.05
2022-10-10T21:52:11.393Z,21.03
2022-10-10T21:54:14.745Z,21.02
2022-10-10T21:56:16.813Z,21.00
2022-10-10T21:58:21.262Z,21.00
2022-10-10T22:00:23.096Z,21.00
2022-10-10T22:02:25.024Z,21.01
2022-10-10T22:04:29.165Z,21.02
2022-10-10T22:06:31.117Z,20.98
2022-10-10T22:08:33.113Z,20.99
2022-10-10T22:10:36.223Z,21.00
2022-10-10T22:12:38.297Z,21.01
2022-10-10T22:14:39.858Z,20.99
2022-10-10T22:16:41.454Z,21.00
2022-10-10T22:18:43.661Z,21.00
2022-10-10T22:20:45.440Z,21.02
2022-10-10T22:22:46.989Z,20.98
2022-10-10T22:24:48.630Z,20.96
2022-10-10T22:26:51.555Z,20.99
2022-10-10T22:28:53.353Z,21.00
2022-10-10T22:30:54.952Z,20.96
2022-10-10T22:32:56.512Z,20.91
2022-10-10T22:34:58.206Z,20.89
2022-10-10T22:36:59.770Z,20.88
2022-10-10T22:39:01.374Z,20.88
2022-10-10T22:41:03.111Z,20.91
2022-10-10T22:43:06.015Z,20.91
2022-10-10T22:45:08.270Z,20.92
2022-10-10T22:47:10.089Z,20.94
2022-10-10T22:49:11.921Z,20.97
2022-10-10T22:51:15.756Z,20.93
2022-10-10T22:53:17.450Z,20.96
2022-10-10T22:55:19.230Z,20.95
2022-10-10T22:57:21.022Z,20.95
2022-10-10T22:59:23.912Z,20.96
2022-10-10T23:01:26.487Z,20.95
2022-10-10T23:03:28.270Z,20.92
2022-10-10T23:05:29.791Z,20.90
2022-10-10T23:07:31.382Z,20.91
2022-10-10T23:09:33.288Z,20.89
2022-10-10T23:11:34.975Z,20.88
2022-10-10T23:13:37.098Z,20.90
2022-10-10T23:15:40.282Z,20.92
2022-10-10T23:17:41.894Z,20.90
2022-10-10T23:19:43.508Z,20.90
2022-10-10T23:21:45.353Z,20.88
2022-10-10T23:23:46.945Z,20.85
2022-10-10T23:25:48.636Z,20.83
2022-10-10T23:27:50.404Z,20.78
2022-10-10T23:29:52.080Z,20.76
2022-10-10T23:31:54.982Z,20.76
2022-10-10T23:33:56.506Z,20.77
2022-10-10T23:35:58.570Z,20.77
2022-10-10T23:38:00.213Z,20.76
2022-10-10T23:40:01.770Z,20.80
2022-10-10T23:42:03.359Z,20.82
2022-10-10T23:44:05.222Z,20.79
2022-10-10T23:46:07.617Z,20.79
2022-10-10T23:50:12.981Z,20.82
2022-10-10T23:52:14.598Z,20.83
2022-10-10T23:54:16.248Z,20.83
2022-10-10T23:56:17.818Z,20.80
2022-10-10T23:58:19.330Z,20.79
